sensor_id;sensor_type;location;lat;lon;timestamp;temperature;humidity
46085;DHT22;31823;47.032;8.310;2023-04-25T00:01:55;9.30;99.90
46085;DHT22;31823;47.032;8.310;2023-04-25T00:04:22;9.50;99.90
46085;DHT22;31823;47.032;8.310;2023-04-25T00:06:47;9.60;99.20
46085;DHT22;31823;47.032;8.310;2023-04-25T00:09:13;9.90;98.00
46085;DHT22;31823;47.032;8.310;2023-04-25T00:11:40;10.20;97.00
46085;DHT22;31823;47.032;8.310;2023-04-25T00:14:05;10.30;96.60
46085;DHT22;31823;47.032;8.310;2023-04-25T00:16:32;10.40;96.00
46085;DHT22;31823;47.032;8.310;2023-04-25T00:19:00;10.50;95.80
46085;DHT22;31823;47.032;8.310;2023-04-25T00:21:26;10.50;95.40
46085;DHT22;31823;47.032;8.310;2023-04-25T00:23:54;10.50;95.80
46085;DHT22;31823;47.032;8.310;2023-04-25T00:26:19;10.50;95.50
46085;DHT22;31823;47.032;8.310;2023-04-25T00:28:46;10.50;95.80
46085;DHT22;31823;47.032;8.310;2023-04-25T00:31:12;10.60;95.70
46085;DHT22;31823;47.032;8.310;2023-04-25T00:33:37;10.40;97.40
46085;DHT22;31823;47.032;8.310;2023-04-25T00:36:03;10.20;99.90
46085;DHT22;31823;47.032;8.310;2023-04-25T00:38:29;10.00;99.90
46085;DHT22;31823;47.032;8.310;2023-04-25T00:40:54;10.30;96.40
46085;DHT22;31823;47.032;8.310;2023-04-25T00:43:21;10.50;94.80
46085;DHT22;31823;47.032;8.310;2023-04-25T00:45:47;10.50;96.10
46085;DHT22;31823;47.032;8.310;2023-04-25T00:48:14;10.50;95.20
46085;DHT22;31823;47.032;8.310;2023-04-25T00:50:40;10.50;95.50
46085;DHT22;31823;47.032;8.310;2023-04-25T00:53:06;10.50;96.40
46085;DHT22;31823;47.032;8.310;2023-04-25T00:55:32;10.10;98.90
46085;DHT22;31823;47.032;8.310;2023-04-25T00:57:59;9.80;99.90
46085;DHT22;31823;47.032;8.310;2023-04-25T01:00:25;9.60;99.90
46085;DHT22;31823;47.032;8.310;2023-04-25T01:02:51;9.20;99.90
46085;DHT22;31823;47.032;8.310;2023-04-25T01:05:17;9.20;99.90
46085;DHT22;31823;47.032;8.310;2023-04-25T01:07:44;9.20;99.90
46085;DHT22;31823;47.032;8.310;2023-04-25T01:10:10;9.50;99.90
46085;DHT22;31823;47.032;8.310;2023-04-25T01:12:36;9.40;99.90
46085;DHT22;31823;47.032;8.310;2023-04-25T01:15:02;9.40;99.90
46085;DHT22;31823;47.032;8.310;2023-04-25T01:17:28;9.20;99.90
46085;DHT22;31823;47.032;8.310;2023-04-25T01:19:54;9.30;99.90
46085;DHT22;31823;47.032;8.310;2023-04-25T01:22:20;9.40;99.90
46085;DHT22;31823;47.032;8.310;2023-04-25T01:24:46;9.50;99.90
46085;DHT22;31823;47.032;8.310;2023-04-25T01:27:12;9.80;96.80
46085;DHT22;31823;47.032;8.310;2023-04-25T01:29:38;10.10;97.20
46085;DHT22;31823;47.032;8.310;2023-04-25T01:32:05;9.90;99.90
46085;DHT22;31823;47.032;8.310;2023-04-25T01:34:31;9.80;98.80
46085;DHT22;31823;47.032;8.310;2023-04-25T01:36:59;9.40;99.90
46085;DHT22;31823;47.032;8.310;2023-04-25T01:39:25;9.20;99.90
46085;DHT22;31823;47.032;8.310;2023-04-25T01:41:50;9.10;99.90
46085;DHT22;31823;47.032;8.310;2023-04-25T01:44:16;9.00;99.90
46085;DHT22;31823;47.032;8.310;2023-04-25T01:46:42;9.30;99.90
46085;DHT22;31823;47.032;8.310;2023-04-25T01:49:08;9.00;99.90
46085;DHT22;31823;47.032;8.310;2023-04-25T01:51:33;8.90;99.90
46085;DHT22;31823;47.032;8.310;2023-04-25T01:54:00;8.70;99.90
46085;DHT22;31823;47.032;8.310;2023-04-25T01:56:30;8.60;99.90
46085;DHT22;31823;47.032;8.310;2023-04-25T01:58:57;8.50;99.90
46085;DHT22;31823;47.032;8.310;2023-04-25T02:01:22;8.40;99.90
46085;DHT22;31823;47.032;8.310;2023-04-25T02:03:48;8.90;99.40
46085;DHT22;31823;47.032;8.310;2023-04-25T02:06:13;9.10;99.90
46085;DHT22;31823;47.032;8.310;2023-04-25T02:08:39;8.60;99.90
46085;DHT22;31823;47.032;8.310;2023-04-25T02:11:05;8.40;99.90
46085;DHT22;31823;47.032;8.310;2023-04-25T02:13:30;8.40;99.90
46085;DHT22;31823;47.032;8.310;2023-04-25T02:15:56;8.30;99.90
46085;DHT22;31823;47.032;8.310;2023-04-25T02:18:22;8.30;99.90
46085;DHT22;31823;47.032;8.310;2023-04-25T02:20:48;8.30;99.90
46085;DHT22;31823;47.032;8.310;2023-04-25T02:23:14;8.40;99.90
46085;DHT22;31823;47.032;8.310;2023-04-25T02:25:41;8.80;99.90
46085;DHT22;31823;47.032;8.310;2023-04-25T02:28:06;9.10;99.60
46085;DHT22;31823;47.032;8.310;2023-04-25T02:30:32;8.90;99.90
46085;DHT22;31823;47.032;8.310;2023-04-25T02:32:57;8.60;99.90
46085;DHT22;31823;47.032;8.310;2023-04-25T02:35:23;8.70;99.90
46085;DHT22;31823;47.032;8.310;2023-04-25T02:37:48;8.60;99.90
46085;DHT22;31823;47.032;8.310;2023-04-25T02:40:14;8.70;99.90
46085;DHT22;31823;47.032;8.310;2023-04-25T02:42:39;8.70;99.90
46085;DHT22;31823;47.032;8.310;2023-04-25T02:45:05;8.60;99.90
46085;DHT22;31823;47.032;8.310;2023-04-25T02:47:31;8.50;99.90
46085;DHT22;31823;47.032;8.310;2023-04-25T02:49:57;8.60;99.90
46085;DHT22;31823;47.032;8.310;2023-04-25T02:52:22;8.50;99.90
46085;DHT22;31823;47.032;8.310;2023-04-25T02:54:48;9.00;99.90
46085;DHT22;31823;47.032;8.310;2023-04-25T02:57:14;9.40;99.90
46085;DHT22;31823;47.032;8.310;2023-04-25T02:59:40;9.00;99.90
46085;DHT22;31823;47.032;8.310;2023-04-25T03:02:05;9.50;98.10
46085;DHT22;31823;47.032;8.310;2023-04-25T03:04:31;9.70;97.70
46085;DHT22;31823;47.032;8.310;2023-04-25T03:06:56;9.80;97.40
46085;DHT22;31823;47.032;8.310;2023-04-25T03:09:22;9.80;96.90
46085;DHT22;31823;47.032;8.310;2023-04-25T03:11:47;9.90;96.60
46085;DHT22;31823;47.032;8.310;2023-04-25T03:14:13;9.90;96.90
46085;DHT22;31823;47.032;8.310;2023-04-25T03:16:39;9.90;96.90
46085;DHT22;31823;47.032;8.310;2023-04-25T03:19:05;9.90;96.60
46085;DHT22;31823;47.032;8.310;2023-04-25T03:21:32;9.90;96.30
46085;DHT22;31823;47.032;8.310;2023-04-25T03:23:58;9.70;99.90
46085;DHT22;31823;47.032;8.310;2023-04-25T03:26:24;9.60;97.00
46085;DHT22;31823;47.032;8.310;2023-04-25T03:28:50;9.80;97.90
46085;DHT22;31823;47.032;8.310;2023-04-25T03:31:15;9.10;99.90
46085;DHT22;31823;47.032;8.310;2023-04-25T03:33:41;8.90;99.90
46085;DHT22;31823;47.032;8.310;2023-04-25T03:36:07;8.70;99.90
46085;DHT22;31823;47.032;8.310;2023-04-25T03:38:33;8.60;99.90
46085;DHT22;31823;47.032;8.310;2023-04-25T03:40:58;8.40;99.90
46085;DHT22;31823;47.032;8.310;2023-04-25T03:43:24;8.40;99.90
46085;DHT22;31823;47.032;8.310;2023-04-25T03:45:49;8.30;99.90
46085;DHT22;31823;47.032;8.310;2023-04-25T03:48:15;8.40;99.90
46085;DHT22;31823;47.032;8.310;2023-04-25T03:50:41;8.60;99.90
46085;DHT22;31823;47.032;8.310;2023-04-25T03:53:06;8.50;99.90
46085;DHT22;31823;47.032;8.310;2023-04-25T03:55:32;8.50;99.90
46085;DHT22;31823;47.032;8.310;2023-04-25T03:57:58;8.50;99.90
46085;DHT22;31823;47.032;8.310;2023-04-25T04:00:24;8.50;99.90
46085;DHT22;31823;47.032;8.310;2023-04-25T04:02:50;8.70;99.90
46085;DHT22;31823;47.032;8.310;2023-04-25T04:05:16;8.60;99.90
46085;DHT22;31823;47.032;8.310;2023-04-25T04:07:41;8.50;99.90
46085;DHT22;31823;47.032;8.310;2023-04-25T04:10:09;8.50;99.90
46085;DHT22;31823;47.032;8.310;2023-04-25T04:12:35;8.70;99.90
46085;DHT22;31823;47.032;8.310;2023-04-25T04:15:04;8.80;99.90
46085;DHT22;31823;47.032;8.310;2023-04-25T04:17:30;8.80;99.90
46085;DHT22;31823;47.032;8.310;2023-04-25T04:19:56;8.80;99.90
46085;DHT22;31823;47.032;8.310;2023-04-25T04:22:22;8.90;99.90
46085;DHT22;31823;47.032;8.310;2023-04-25T04:24:48;8.80;99.90
46085;DHT22;31823;47.032;8.310;2023-04-25T04:27:15;8.70;99.90
46085;DHT22;31823;47.032;8.310;2023-04-25T04:29:42;8.30;99.90
46085;DHT22;31823;47.032;8.310;2023-04-25T04:32:08;8.10;99.90
46085;DHT22;31823;47.032;8.310;2023-04-25T04:34:34;8.20;99.90
46085;DHT22;31823;47.032;8.310;2023-04-25T04:37:00;7.60;99.90
46085;DHT22;31823;47.032;8.310;2023-04-25T04:39:26;7.20;99.90
46085;DHT22;31823;47.032;8.310;2023-04-25T04:41:51;7.10;99.90
46085;DHT22;31823;47.032;8.310;2023-04-25T04:44:17;6.90;99.90
46085;DHT22;31823;47.032;8.310;2023-04-25T04:46:43;6.90;99.90
46085;DHT22;31823;47.032;8.310;2023-04-25T04:49:10;6.90;99.90
46085;DHT22;31823;47.032;8.310;2023-04-25T04:51:36;6.90;99.90
46085;DHT22;31823;47.032;8.310;2023-04-25T04:54:02;6.90;99.90
46085;DHT22;31823;47.032;8.310;2023-04-25T04:56:29;6.90;99.90
46085;DHT22;31823;47.032;8.310;2023-04-25T04:58:57;6.80;99.90
46085;DHT22;31823;47.032;8.310;2023-04-25T05:01:23;6.80;99.90
46085;DHT22;31823;47.032;8.310;2023-04-25T05:03:48;6.90;99.90
46085;DHT22;31823;47.032;8.310;2023-04-25T05:06:15;6.90;99.90
46085;DHT22;31823;47.032;8.310;2023-04-25T05:08:41;7.00;99.90
46085;DHT22;31823;47.032;8.310;2023-04-25T05:11:06;7.30;99.90
46085;DHT22;31823;47.032;8.310;2023-04-25T05:13:32;7.10;99.90
46085;DHT22;31823;47.032;8.310;2023-04-25T05:15:57;7.10;99.90
46085;DHT22;31823;47.032;8.310;2023-04-25T05:18:23;7.40;99.90
46085;DHT22;31823;47.032;8.310;2023-04-25T05:20:49;7.80;99.90
46085;DHT22;31823;47.032;8.310;2023-04-25T05:23:14;7.50;99.90
46085;DHT22;31823;47.032;8.310;2023-04-25T05:25:40;7.60;99.90
46085;DHT22;31823;47.032;8.310;2023-04-25T05:28:06;7.60;99.90
46085;DHT22;31823;47.032;8.310;2023-04-25T05:30:32;7.70;99.90
46085;DHT22;31823;47.032;8.310;2023-04-25T05:32:57;8.00;99.90
46085;DHT22;31823;47.032;8.310;2023-04-25T05:35:23;8.00;99.90
46085;DHT22;31823;47.032;8.310;2023-04-25T05:37:48;8.00;99.90
46085;DHT22;31823;47.032;8.310;2023-04-25T05:40:14;8.20;99.90
46085;DHT22;31823;47.032;8.310;2023-04-25T05:42:40;8.30;99.90
46085;DHT22;31823;47.032;8.310;2023-04-25T05:45:06;8.40;99.90
46085;DHT22;31823;47.032;8.310;2023-04-25T05:47:31;8.40;99.90
46085;DHT22;31823;47.032;8.310;2023-04-25T05:49:57;8.40;99.90
46085;DHT22;31823;47.032;8.310;2023-04-25T05:52:22;8.40;99.90
46085;DHT22;31823;47.032;8.310;2023-04-25T05:54:48;8.40;99.90
46085;DHT22;31823;47.032;8.310;2023-04-25T05:57:40;8.40;99.90
46085;DHT22;31823;47.032;8.310;2023-04-25T06:00:08;8.50;99.90
46085;DHT22;31823;47.032;8.310;2023-04-25T06:02:34;8.50;99.90
46085;DHT22;31823;47.032;8.310;2023-04-25T06:05:00;8.50;99.90
46085;DHT22;31823;47.032;8.310;2023-04-25T06:07:28;8.60;99.90
46085;DHT22;31823;47.032;8.310;2023-04-25T06:09:55;8.50;99.90
46085;DHT22;31823;47.032;8.310;2023-04-25T06:12:20;8.50;99.90
46085;DHT22;31823;47.032;8.310;2023-04-25T06:14:46;8.70;99.90
46085;DHT22;31823;47.032;8.310;2023-04-25T06:17:12;8.60;99.90
46085;DHT22;31823;47.032;8.310;2023-04-25T06:19:37;8.70;99.90
46085;DHT22;31823;47.032;8.310;2023-04-25T06:22:03;8.70;99.90
46085;DHT22;31823;47.032;8.310;2023-04-25T06:24:28;8.60;99.90
46085;DHT22;31823;47.032;8.310;2023-04-25T06:26:54;8.70;99.90
46085;DHT22;31823;47.032;8.310;2023-04-25T06:29:20;8.70;99.90
46085;DHT22;31823;47.032;8.310;2023-04-25T06:31:46;8.80;99.90
46085;DHT22;31823;47.032;8.310;2023-04-25T06:34:11;8.80;99.90
46085;DHT22;31823;47.032;8.310;2023-04-25T06:36:37;8.80;99.90
46085;DHT22;31823;47.032;8.310;2023-04-25T06:39:03;8.70;99.90
46085;DHT22;31823;47.032;8.310;2023-04-25T06:41:28;8.70;99.90
46085;DHT22;31823;47.032;8.310;2023-04-25T06:43:54;8.50;99.90
46085;DHT22;31823;47.032;8.310;2023-04-25T06:46:20;8.40;99.90
46085;DHT22;31823;47.032;8.310;2023-04-25T06:48:45;8.10;99.90
46085;DHT22;31823;47.032;8.310;2023-04-25T06:51:11;8.10;99.90
46085;DHT22;31823;47.032;8.310;2023-04-25T06:53:38;8.10;99.90
46085;DHT22;31823;47.032;8.310;2023-04-25T06:56:04;8.00;99.90
46085;DHT22;31823;47.032;8.310;2023-04-25T06:58:30;8.00;99.90
46085;DHT22;31823;47.032;8.310;2023-04-25T07:00:55;7.90;99.90
46085;DHT22;31823;47.032;8.310;2023-04-25T07:03:21;7.80;99.90
46085;DHT22;31823;47.032;8.310;2023-04-25T07:05:46;7.90;99.90
46085;DHT22;31823;47.032;8.310;2023-04-25T07:08:12;7.80;99.90
46085;DHT22;31823;47.032;8.310;2023-04-25T07:10:38;7.90;99.90
46085;DHT22;31823;47.032;8.310;2023-04-25T07:13:04;7.70;99.90
46085;DHT22;31823;47.032;8.310;2023-04-25T07:15:30;7.70;99.90
46085;DHT22;31823;47.032;8.310;2023-04-25T07:17:55;7.60;99.90
46085;DHT22;31823;47.032;8.310;2023-04-25T07:20:21;7.40;99.90
46085;DHT22;31823;47.032;8.310;2023-04-25T07:22:46;7.50;99.90
46085;DHT22;31823;47.032;8.310;2023-04-25T07:25:12;7.30;99.90
46085;DHT22;31823;47.032;8.310;2023-04-25T07:27:38;7.20;99.90
46085;DHT22;31823;47.032;8.310;2023-04-25T07:30:05;7.10;99.90
46085;DHT22;31823;47.032;8.310;2023-04-25T07:32:30;7.00;99.90
46085;DHT22;31823;47.032;8.310;2023-04-25T07:34:56;7.10;99.90
46085;DHT22;31823;47.032;8.310;2023-04-25T07:37:21;6.90;99.90
46085;DHT22;31823;47.032;8.310;2023-04-25T07:39:47;6.90;99.90
46085;DHT22;31823;47.032;8.310;2023-04-25T07:42:13;6.80;99.90
46085;DHT22;31823;47.032;8.310;2023-04-25T07:44:38;6.80;99.90
46085;DHT22;31823;47.032;8.310;2023-04-25T07:47:09;6.70;99.90
46085;DHT22;31823;47.032;8.310;2023-04-25T07:49:35;6.50;99.90
46085;DHT22;31823;47.032;8.310;2023-04-25T07:52:02;6.70;99.90
46085;DHT22;31823;47.032;8.310;2023-04-25T07:54:28;6.90;99.90
46085;DHT22;31823;47.032;8.310;2023-04-25T07:56:53;6.90;99.90
46085;DHT22;31823;47.032;8.310;2023-04-25T07:59:19;7.10;99.90
46085;DHT22;31823;47.032;8.310;2023-04-25T08:01:45;7.10;99.90
46085;DHT22;31823;47.032;8.310;2023-04-25T08:04:11;7.20;99.90
46085;DHT22;31823;47.032;8.310;2023-04-25T08:06:36;7.30;99.90
46085;DHT22;31823;47.032;8.310;2023-04-25T08:09:02;7.40;99.90
46085;DHT22;31823;47.032;8.310;2023-04-25T08:11:28;7.70;99.90
46085;DHT22;31823;47.032;8.310;2023-04-25T08:13:54;7.70;99.90
46085;DHT22;31823;47.032;8.310;2023-04-25T08:16:20;7.70;99.90
46085;DHT22;31823;47.032;8.310;2023-04-25T08:18:45;7.80;99.90
46085;DHT22;31823;47.032;8.310;2023-04-25T08:21:11;8.10;99.90
46085;DHT22;31823;47.032;8.310;2023-04-25T08:23:38;8.30;99.90
46085;DHT22;31823;47.032;8.310;2023-04-25T08:26:03;8.40;99.90
46085;DHT22;31823;47.032;8.310;2023-04-25T08:28:30;8.10;99.90
46085;DHT22;31823;47.032;8.310;2023-04-25T08:30:55;7.90;99.90
46085;DHT22;31823;47.032;8.310;2023-04-25T08:33:21;7.80;99.90
46085;DHT22;31823;47.032;8.310;2023-04-25T08:35:47;7.90;99.90
46085;DHT22;31823;47.032;8.310;2023-04-25T08:38:12;7.80;99.90
46085;DHT22;31823;47.032;8.310;2023-04-25T08:40:39;7.80;99.90
46085;DHT22;31823;47.032;8.310;2023-04-25T08:43:06;7.70;99.90
46085;DHT22;31823;47.032;8.310;2023-04-25T08:45:39;7.70;99.90
46085;DHT22;31823;47.032;8.310;2023-04-25T08:48:11;7.80;99.90
46085;DHT22;31823;47.032;8.310;2023-04-25T08:50:51;7.60;99.90
46085;DHT22;31823;47.032;8.310;2023-04-25T08:53:22;7.50;99.90
46085;DHT22;31823;47.032;8.310;2023-04-25T08:55:50;7.60;99.90
46085;DHT22;31823;47.032;8.310;2023-04-25T08:58:18;7.70;99.90
46085;DHT22;31823;47.032;8.310;2023-04-25T09:00:45;7.90;99.90
46085;DHT22;31823;47.032;8.310;2023-04-25T09:03:11;8.00;99.90
46085;DHT22;31823;47.032;8.310;2023-04-25T09:05:36;8.00;99.90
46085;DHT22;31823;47.032;8.310;2023-04-25T09:08:02;8.00;99.90
46085;DHT22;31823;47.032;8.310;2023-04-25T09:10:28;7.90;99.90
46085;DHT22;31823;47.032;8.310;2023-04-25T09:13:06;7.90;99.90
46085;DHT22;31823;47.032;8.310;2023-04-25T09:15:47;7.80;99.90
46085;DHT22;31823;47.032;8.310;2023-04-25T09:18:13;7.80;99.90
46085;DHT22;31823;47.032;8.310;2023-04-25T09:20:43;8.00;99.90
46085;DHT22;31823;47.032;8.310;2023-04-25T09:23:08;8.20;99.90
46085;DHT22;31823;47.032;8.310;2023-04-25T09:25:37;8.30;99.90
46085;DHT22;31823;47.032;8.310;2023-04-25T09:28:05;8.20;99.90
46085;DHT22;31823;47.032;8.310;2023-04-25T09:30:33;8.30;99.90
46085;DHT22;31823;47.032;8.310;2023-04-25T09:33:11;8.60;99.90
46085;DHT22;31823;47.032;8.310;2023-04-25T09:35:43;8.80;99.90
46085;DHT22;31823;47.032;8.310;2023-04-25T09:38:13;9.20;99.90
46085;DHT22;31823;47.032;8.310;2023-04-25T09:40:43;9.30;99.90
46085;DHT22;31823;47.032;8.310;2023-04-25T09:43:24;9.60;99.90
46085;DHT22;31823;47.032;8.310;2023-04-25T09:45:54;9.60;99.90
46085;DHT22;31823;47.032;8.310;2023-04-25T09:48:23;9.20;99.90
46085;DHT22;31823;47.032;8.310;2023-04-25T09:53:38;9.20;99.90
46085;DHT22;31823;47.032;8.310;2023-04-25T09:56:07;9.10;99.90
46085;DHT22;31823;47.032;8.310;2023-04-25T09:58:33;9.20;99.90
46085;DHT22;31823;47.032;8.310;2023-04-25T10:01:01;9.40;99.90
46085;DHT22;31823;47.032;8.310;2023-04-25T10:03:33;9.40;99.90
46085;DHT22;31823;47.032;8.310;2023-04-25T10:06:01;9.40;99.90
46085;DHT22;31823;47.032;8.310;2023-04-25T10:08:35;9.40;99.90
46085;DHT22;31823;47.032;8.310;2023-04-25T10:11:04;9.30;99.90
46085;DHT22;31823;47.032;8.310;2023-04-25T10:13:30;9.60;99.90
46085;DHT22;31823;47.032;8.310;2023-04-25T10:16:04;9.80;99.90
46085;DHT22;31823;47.032;8.310;2023-04-25T10:18:31;9.90;99.90
46085;DHT22;31823;47.032;8.310;2023-04-25T10:21:01;9.80;99.90
46085;DHT22;31823;47.032;8.310;2023-04-25T10:23:29;9.70;99.90
46085;DHT22;31823;47.032;8.310;2023-04-25T10:25:55;9.50;99.90
46085;DHT22;31823;47.032;8.310;2023-04-25T10:28:22;9.50;99.90
46085;DHT22;31823;47.032;8.310;2023-04-25T10:33:40;9.40;99.90
46085;DHT22;31823;47.032;8.310;2023-04-25T10:36:12;9.40;99.90
46085;DHT22;31823;47.032;8.310;2023-04-25T10:38:38;9.30;99.90
46085;DHT22;31823;47.032;8.310;2023-04-25T10:41:05;9.20;99.90
46085;DHT22;31823;47.032;8.310;2023-04-25T10:45:59;8.70;99.90
46085;DHT22;31823;47.032;8.310;2023-04-25T10:48:26;8.70;99.90
46085;DHT22;31823;47.032;8.310;2023-04-25T10:51:15;8.60;99.90
46085;DHT22;31823;47.032;8.310;2023-04-25T10:53:41;8.30;99.90
46085;DHT22;31823;47.032;8.310;2023-04-25T10:56:20;7.90;99.90
46085;DHT22;31823;47.032;8.310;2023-04-25T10:58:47;7.60;99.90
46085;DHT22;31823;47.032;8.310;2023-04-25T11:01:13;7.50;99.90
46085;DHT22;31823;47.032;8.310;2023-04-25T11:03:43;7.40;99.90
46085;DHT22;31823;47.032;8.310;2023-04-25T11:08:53;7.20;99.90
46085;DHT22;31823;47.032;8.310;2023-04-25T11:11:19;7.00;99.90
46085;DHT22;31823;47.032;8.310;2023-04-25T11:13:48;7.00;99.90
46085;DHT22;31823;47.032;8.310;2023-04-25T11:16:14;7.20;99.90
46085;DHT22;31823;47.032;8.310;2023-04-25T11:18:43;7.30;99.90
46085;DHT22;31823;47.032;8.310;2023-04-25T11:21:10;7.50;99.90
46085;DHT22;31823;47.032;8.310;2023-04-25T11:23:36;7.70;99.90
46085;DHT22;31823;47.032;8.310;2023-04-25T11:26:02;7.80;99.90
46085;DHT22;31823;47.032;8.310;2023-04-25T11:28:28;7.90;99.90
46085;DHT22;31823;47.032;8.310;2023-04-25T11:30:54;8.20;99.90
46085;DHT22;31823;47.032;8.310;2023-04-25T11:33:24;8.10;99.90
46085;DHT22;31823;47.032;8.310;2023-04-25T11:35:53;8.20;99.90
46085;DHT22;31823;47.032;8.310;2023-04-25T11:38:20;8.40;99.90
46085;DHT22;31823;47.032;8.310;2023-04-25T11:40:50;8.90;99.90
46085;DHT22;31823;47.032;8.310;2023-04-25T11:43:17;9.20;99.90
46085;DHT22;31823;47.032;8.310;2023-04-25T11:45:46;9.20;99.90
46085;DHT22;31823;47.032;8.310;2023-04-25T11:48:13;9.10;99.90
46085;DHT22;31823;47.032;8.310;2023-04-25T11:50:39;9.20;99.90
46085;DHT22;31823;47.032;8.310;2023-04-25T11:53:05;9.20;99.90
46085;DHT22;31823;47.032;8.310;2023-04-25T11:55:31;8.90;99.90
46085;DHT22;31823;47.032;8.310;2023-04-25T11:58:00;9.00;99.90
46085;DHT22;31823;47.032;8.310;2023-04-25T12:00:26;9.40;99.90
46085;DHT22;31823;47.032;8.310;2023-04-25T12:02:54;9.70;99.90
46085;DHT22;31823;47.032;8.310;2023-04-25T12:05:20;10.10;99.90
46085;DHT22;31823;47.032;8.310;2023-04-25T12:07:48;10.10;99.90
46085;DHT22;31823;47.032;8.310;2023-04-25T12:10:15;9.70;99.90
46085;DHT22;31823;47.032;8.310;2023-04-25T12:12:42;10.00;99.90
46085;DHT22;31823;47.032;8.310;2023-04-25T12:15:12;10.30;99.90
46085;DHT22;31823;47.032;8.310;2023-04-25T12:17:47;10.30;99.90
46085;DHT22;31823;47.032;8.310;2023-04-25T12:20:21;10.30;99.90
46085;DHT22;31823;47.032;8.310;2023-04-25T12:22:49;10.40;99.90
46085;DHT22;31823;47.032;8.310;2023-04-25T12:25:37;10.40;99.90
46085;DHT22;31823;47.032;8.310;2023-04-25T12:28:20;10.50;99.90
46085;DHT22;31823;47.032;8.310;2023-04-25T12:30:53;10.30;99.90
46085;DHT22;31823;47.032;8.310;2023-04-25T12:33:18;10.10;99.90
46085;DHT22;31823;47.032;8.310;2023-04-25T12:35:44;9.70;99.90
46085;DHT22;31823;47.032;8.310;2023-04-25T12:38:10;9.70;99.90
46085;DHT22;31823;47.032;8.310;2023-04-25T12:40:36;9.80;99.90
46085;DHT22;31823;47.032;8.310;2023-04-25T12:43:01;9.80;99.90
46085;DHT22;31823;47.032;8.310;2023-04-25T12:45:27;9.80;99.90
46085;DHT22;31823;47.032;8.310;2023-04-25T12:47:52;9.60;99.90
46085;DHT22;31823;47.032;8.310;2023-04-25T12:50:18;9.80;99.90
46085;DHT22;31823;47.032;8.310;2023-04-25T12:52:43;9.70;99.90
46085;DHT22;31823;47.032;8.310;2023-04-25T12:55:09;10.00;99.90
46085;DHT22;31823;47.032;8.310;2023-04-25T12:57:35;10.20;99.90
46085;DHT22;31823;47.032;8.310;2023-04-25T13:00:00;10.10;99.90
46085;DHT22;31823;47.032;8.310;2023-04-25T13:02:26;10.40;99.90
46085;DHT22;31823;47.032;8.310;2023-04-25T13:04:51;10.60;99.90
46085;DHT22;31823;47.032;8.310;2023-04-25T13:07:17;10.70;99.90
46085;DHT22;31823;47.032;8.310;2023-04-25T13:09:42;10.80;99.90
46085;DHT22;31823;47.032;8.310;2023-04-25T13:12:08;10.80;99.90
46085;DHT22;31823;47.032;8.310;2023-04-25T13:14:34;10.50;99.90
46085;DHT22;31823;47.032;8.310;2023-04-25T13:16:59;10.60;99.90
46085;DHT22;31823;47.032;8.310;2023-04-25T13:19:25;10.60;99.90
46085;DHT22;31823;47.032;8.310;2023-04-25T13:21:51;10.80;99.90
46085;DHT22;31823;47.032;8.310;2023-04-25T13:24:16;11.10;99.90
46085;DHT22;31823;47.032;8.310;2023-04-25T13:26:42;11.80;99.90
46085;DHT22;31823;47.032;8.310;2023-04-25T13:29:08;11.10;99.90
46085;DHT22;31823;47.032;8.310;2023-04-25T13:31:34;10.80;99.90
46085;DHT22;31823;47.032;8.310;2023-04-25T13:34:00;11.00;99.90
46085;DHT22;31823;47.032;8.310;2023-04-25T13:36:25;10.90;99.90
46085;DHT22;31823;47.032;8.310;2023-04-25T13:38:51;11.10;99.90
46085;DHT22;31823;47.032;8.310;2023-04-25T13:41:17;10.60;99.90
46085;DHT22;31823;47.032;8.310;2023-04-25T13:43:45;10.80;99.90
46085;DHT22;31823;47.032;8.310;2023-04-25T13:46:12;11.30;99.90
46085;DHT22;31823;47.032;8.310;2023-04-25T13:48:38;11.50;99.90
46085;DHT22;31823;47.032;8.310;2023-04-25T13:51:04;11.30;99.90
46085;DHT22;31823;47.032;8.310;2023-04-25T13:53:29;11.50;99.90
46085;DHT22;31823;47.032;8.310;2023-04-25T13:55:55;11.40;99.90
46085;DHT22;31823;47.032;8.310;2023-04-25T13:58:20;12.00;99.90
46085;DHT22;31823;47.032;8.310;2023-04-25T14:00:46;13.30;99.90
46085;DHT22;31823;47.032;8.310;2023-04-25T14:03:12;12.50;97.80
46085;DHT22;31823;47.032;8.310;2023-04-25T14:05:37;11.90;99.90
46085;DHT22;31823;47.032;8.310;2023-04-25T14:08:05;12.00;99.90
46085;DHT22;31823;47.032;8.310;2023-04-25T14:10:31;12.10;99.90
46085;DHT22;31823;47.032;8.310;2023-04-25T14:12:56;11.60;99.90
46085;DHT22;31823;47.032;8.310;2023-04-25T14:15:22;11.70;99.90
46085;DHT22;31823;47.032;8.310;2023-04-25T14:17:47;12.30;99.90
46085;DHT22;31823;47.032;8.310;2023-04-25T14:20:13;12.60;99.90
46085;DHT22;31823;47.032;8.310;2023-04-25T14:22:39;12.50;99.90
46085;DHT22;31823;47.032;8.310;2023-04-25T14:25:08;12.60;99.90
46085;DHT22;31823;47.032;8.310;2023-04-25T14:27:34;12.80;99.90
46085;DHT22;31823;47.032;8.310;2023-04-25T14:30:00;13.10;99.90
46085;DHT22;31823;47.032;8.310;2023-04-25T14:32:25;12.70;99.90
46085;DHT22;31823;47.032;8.310;2023-04-25T14:34:51;12.60;99.90
46085;DHT22;31823;47.032;8.310;2023-04-25T14:37:17;12.70;99.90
46085;DHT22;31823;47.032;8.310;2023-04-25T14:39:42;12.90;99.90
46085;DHT22;31823;47.032;8.310;2023-04-25T14:42:08;12.30;99.90
46085;DHT22;31823;47.032;8.310;2023-04-25T14:44:33;12.20;99.90
46085;DHT22;31823;47.032;8.310;2023-04-25T14:46:59;12.60;99.90
46085;DHT22;31823;47.032;8.310;2023-04-25T14:49:25;12.70;99.90
46085;DHT22;31823;47.032;8.310;2023-04-25T14:51:51;12.10;99.90
46085;DHT22;31823;47.032;8.310;2023-04-25T14:54:16;12.60;99.90
46085;DHT22;31823;47.032;8.310;2023-04-25T14:56:42;12.90;99.90
46085;DHT22;31823;47.032;8.310;2023-04-25T14:59:08;13.00;99.70
46085;DHT22;31823;47.032;8.310;2023-04-25T15:01:33;12.80;99.90
46085;DHT22;31823;47.032;8.310;2023-04-25T15:04:00;12.90;99.90
46085;DHT22;31823;47.032;8.310;2023-04-25T15:06:25;12.50;99.90
46085;DHT22;31823;47.032;8.310;2023-04-25T15:08:52;12.00;99.90
46085;DHT22;31823;47.032;8.310;2023-04-25T15:11:18;12.10;99.90
46085;DHT22;31823;47.032;8.310;2023-04-25T15:13:45;12.10;99.90
46085;DHT22;31823;47.032;8.310;2023-04-25T15:16:11;12.20;99.90
46085;DHT22;31823;47.032;8.310;2023-04-25T15:18:36;12.40;99.50
46085;DHT22;31823;47.032;8.310;2023-04-25T15:21:02;12.40;99.90
46085;DHT22;31823;47.032;8.310;2023-04-25T15:23:28;12.40;99.90
46085;DHT22;31823;47.032;8.310;2023-04-25T15:25:54;12.00;99.50
46085;DHT22;31823;47.032;8.310;2023-04-25T15:28:19;11.80;99.90
46085;DHT22;31823;47.032;8.310;2023-04-25T15:30:46;11.70;99.90
46085;DHT22;31823;47.032;8.310;2023-04-25T15:33:12;11.80;98.60
46085;DHT22;31823;47.032;8.310;2023-04-25T15:35:38;11.90;99.90
46085;DHT22;31823;47.032;8.310;2023-04-25T15:38:04;11.90;99.90
46085;DHT22;31823;47.032;8.310;2023-04-25T15:40:30;12.00;98.60
46085;DHT22;31823;47.032;8.310;2023-04-25T15:42:56;12.20;97.90
46085;DHT22;31823;47.032;8.310;2023-04-25T15:45:23;12.30;97.00
46085;DHT22;31823;47.032;8.310;2023-04-25T15:47:51;12.10;96.70
46085;DHT22;31823;47.032;8.310;2023-04-25T15:50:18;12.20;97.40